createdAt,value
2017-11-12T00:02:15.888Z,16.23
2017-11-12T00:04:43.405Z,10.57
2017-11-12T00:07:10.896Z,10.13
2017-11-12T00:09:38.395Z,13.90
2017-11-12T00:12:06.034Z,19.27
2017-11-12T00:14:33.584Z,20.33
2017-11-12T00:17:01.073Z,26.33
2017-11-12T00:19:28.597Z,12.87
2017-11-12T00:21:56.082Z,16.43
2017-11-12T00:24:23.568Z,14.80
2017-11-12T00:26:51.097Z,14.13
2017-11-12T00:29:18.624Z,26.67
2017-11-12T00:31:46.103Z,28.57
2017-11-12T00:34:13.640Z,19.93
2017-11-12T00:36:41.124Z,29.90
2017-11-12T00:39:08.923Z,14.80
2017-11-12T00:41:36.437Z,9.43
2017-11-12T00:44:03.934Z,22.47
2017-11-12T00:46:31.430Z,21.23
2017-11-12T00:48:58.967Z,20.63
2017-11-12T00:51:26.453Z,40.90
2017-11-12T00:53:53.957Z,16.40
2017-11-12T00:56:21.474Z,31.53
2017-11-12T00:58:49.041Z,31.67
2017-11-12T01:01:16.629Z,26.60
2017-11-12T01:03:44.156Z,21.30
2017-11-12T01:06:11.713Z,10.83
2017-11-12T01:08:39.276Z,11.20
2017-11-12T01:11:06.834Z,11.33
2017-11-12T01:13:34.327Z,12.40
2017-11-12T01:16:01.818Z,15.60
2017-11-12T01:18:29.341Z,11.70
2017-11-12T01:20:56.857Z,11.57
2017-11-12T01:23:24.338Z,11.80
2017-11-12T01:25:51.869Z,17.07
2017-11-12T01:28:19.369Z,21.23
2017-11-12T01:30:46.863Z,14.10
2017-11-12T01:33:14.394Z,11.37
2017-11-12T01:35:41.912Z,17.93
2017-11-12T01:38:09.404Z,11.13
2017-11-12T01:40:36.917Z,10.60
2017-11-12T01:43:04.511Z,11.60
2017-11-12T01:45:31.993Z,11.40
2017-11-12T01:47:59.511Z,10.37
2017-11-12T01:50:27.072Z,17.50
2017-11-12T01:52:54.565Z,10.47
2017-11-12T01:55:22.116Z,14.70
2017-11-12T01:57:49.644Z,9.53
2017-11-12T02:00:17.120Z,15.23
2017-11-12T02:02:44.677Z,9.07
2017-11-12T02:05:12.217Z,11.10
2017-11-12T02:07:39.711Z,13.83
2017-11-12T02:10:07.338Z,17.67
2017-11-12T02:12:34.828Z,19.87
2017-11-12T02:15:02.318Z,16.83
2017-11-12T02:17:29.875Z,18.00
2017-11-12T02:19:57.374Z,19.00
2017-11-12T02:22:24.878Z,21.87
2017-11-12T02:24:52.407Z,20.00
2017-11-12T02:27:19.902Z,23.67
2017-11-12T02:29:47.382Z,14.13
2017-11-12T02:32:14.937Z,16.47
2017-11-12T02:34:42.424Z,18.33
2017-11-12T02:37:09.917Z,20.33
2017-11-12T02:39:37.433Z,17.90
2017-11-12T02:42:04.923Z,21.30
2017-11-12T02:44:32.554Z,16.20
2017-11-12T02:47:00.130Z,23.77
2017-11-12T02:49:27.629Z,14.70
2017-11-12T02:51:55.170Z,15.60
2017-11-12T02:54:22.688Z,12.40
2017-11-12T02:56:50.249Z,16.40
2017-11-12T02:59:17.772Z,12.30
2017-11-12T03:01:45.281Z,14.70
2017-11-12T03:04:12.821Z,14.43
2017-11-12T03:06:40.345Z,20.63
2017-11-12T03:09:07.842Z,24.93
2017-11-12T03:11:35.334Z,22.43
2017-11-12T03:14:02.951Z,13.27
2017-11-12T03:16:30.467Z,17.57
2017-11-12T03:18:57.956Z,22.67
2017-11-12T03:21:25.500Z,18.17
2017-11-12T03:23:52.997Z,24.40
2017-11-12T03:26:20.484Z,18.60
2017-11-12T03:28:48.001Z,13.90
2017-11-12T03:31:15.495Z,19.50
2017-11-12T03:33:43.085Z,14.27
2017-11-12T03:36:10.578Z,14.13
2017-11-12T03:38:38.074Z,16.50
2017-11-12T03:41:05.611Z,18.80
2017-11-12T03:43:33.108Z,18.50
2017-11-12T03:46:00.630Z,18.53
2017-11-12T03:48:28.275Z,15.40
2017-11-12T03:50:55.838Z,25.07
2017-11-12T03:53:23.333Z,18.73
2017-11-12T03:55:50.853Z,17.27
2017-11-12T03:58:18.343Z,18.00
2017-11-12T04:00:45.873Z,20.23
2017-11-12T04:03:13.403Z,19.53
2017-11-12T04:05:40.909Z,14.50
2017-11-12T04:08:08.449Z,17.07
2017-11-12T04:10:36.124Z,31.80
2017-11-12T04:13:03.665Z,19.50
2017-11-12T04:15:31.159Z,22.50
2017-11-12T04:17:58.753Z,23.13
2017-11-12T04:20:26.347Z,20.77
2017-11-12T04:22:53.841Z,27.77
2017-11-12T04:25:21.375Z,19.47
2017-11-12T04:27:48.860Z,26.03
2017-11-12T04:30:16.393Z,23.23
2017-11-12T04:32:43.921Z,24.03
2017-11-12T04:35:11.492Z,21.50
2017-11-12T04:37:38.978Z,27.60
2017-11-12T04:40:06.524Z,20.03
2017-11-12T04:42:34.069Z,30.33
2017-11-12T04:45:01.558Z,24.10
2017-11-12T04:47:29.089Z,22.50
2017-11-12T04:49:56.595Z,22.23
2017-11-12T04:52:24.088Z,19.13
2017-11-12T04:54:51.638Z,23.23
2017-11-12T04:57:19.136Z,26.83
2017-11-12T04:59:46.717Z,22.13
2017-11-12T05:02:14.441Z,17.80
2017-11-12T05:04:41.951Z,22.40
2017-11-12T05:07:09.441Z,27.37
2017-11-12T05:09:37.009Z,21.63
2017-11-12T05:12:04.596Z,26.63
2017-11-12T05:14:32.135Z,21.80
2017-11-12T05:16:59.686Z,22.70
2017-11-12T05:19:27.178Z,16.40
2017-11-12T05:21:54.718Z,18.33
2017-11-12T05:24:22.271Z,20.50
2017-11-12T05:26:49.775Z,19.47
2017-11-12T05:29:17.262Z,19.03
2017-11-12T05:31:44.859Z,20.30
2017-11-12T05:34:12.350Z,20.07
2017-11-12T05:36:39.845Z,22.10
2017-11-12T05:39:07.373Z,21.67
2017-11-12T05:41:34.862Z,19.30
2017-11-12T05:44:02.440Z,21.53
2017-11-12T05:46:30.108Z,20.57
2017-11-12T05:48:57.660Z,36.10
2017-11-12T05:51:25.153Z,22.47
2017-11-12T05:53:52.728Z,20.20
2017-11-12T05:56:20.237Z,24.80
2017-11-12T05:58:47.725Z,21.40
2017-11-12T06:01:15.254Z,38.53
2017-11-12T06:03:42.748Z,25.67
2017-11-12T06:06:10.237Z,25.37
2017-11-12T06:08:37.777Z,21.87
2017-11-12T06:11:05.270Z,21.03
2017-11-12T06:13:32.769Z,20.20
2017-11-12T06:16:00.368Z,27.23
2017-11-12T06:18:27.874Z,37.90
2017-11-12T06:20:55.364Z,31.10
2017-11-12T06:23:22.880Z,22.60
2017-11-12T06:25:50.441Z,27.53
2017-11-12T06:28:17.998Z,23.63
2017-11-12T06:30:45.528Z,23.63
2017-11-12T06:33:13.016Z,23.40
2017-11-12T06:35:40.505Z,32.23
2017-11-12T06:38:08.021Z,30.43
2017-11-12T06:40:35.585Z,21.27
2017-11-12T06:43:03.081Z,29.83
2017-11-12T06:45:30.706Z,25.97
2017-11-12T06:47:58.195Z,25.63
2017-11-12T06:50:25.684Z,31.13
2017-11-12T06:52:53.281Z,26.83
2017-11-12T06:55:20.841Z,26.17
2017-11-12T06:57:48.340Z,25.80
2017-11-12T07:00:15.885Z,24.23
2017-11-12T07:02:43.369Z,19.67
2017-11-12T07:05:10.857Z,19.73
2017-11-12T07:07:38.388Z,25.60
2017-11-12T07:10:05.896Z,23.50
2017-11-12T07:12:33.381Z,32.67
2017-11-12T07:15:01.022Z,32.67
2017-11-12T07:17:28.503Z,22.07
2017-11-12T07:19:55.993Z,30.97
2017-11-12T07:22:23.591Z,25.07
2017-11-12T07:24:51.083Z,21.13
2017-11-12T07:27:18.572Z,27.60
2017-11-12T07:29:46.490Z,25.00
2017-11-12T07:32:14.043Z,24.33
2017-11-12T07:34:41.580Z,22.70
2017-11-12T07:37:09.149Z,27.83
2017-11-12T07:39:36.637Z,23.90
2017-11-12T07:42:04.128Z,27.60
2017-11-12T07:44:31.641Z,21.93
2017-11-12T07:46:59.134Z,18.33
2017-11-12T07:49:26.633Z,17.37
2017-11-12T07:51:54.184Z,25.47
2017-11-12T07:54:21.668Z,28.60
2017-11-12T07:56:49.208Z,17.00
2017-11-12T07:59:16.748Z,19.00
2017-11-12T08:01:44.246Z,17.13
2017-11-12T08:04:11.786Z,25.10
2017-11-12T08:06:39.364Z,22.73
2017-11-12T08:09:06.850Z,17.73
2017-11-12T08:11:34.333Z,14.37
2017-11-12T08:14:01.920Z,17.27
2017-11-12T08:16:29.411Z,15.57
2017-11-12T08:18:56.894Z,24.80
2017-11-12T08:21:24.496Z,19.33
2017-11-12T08:23:52.000Z,21.03
2017-11-12T08:26:19.486Z,17.60
2017-11-12T08:28:47.009Z,21.20
2017-11-12T08:31:14.521Z,14.97
2017-11-12T08:33:42.016Z,26.00
2017-11-12T08:36:09.667Z,19.60
2017-11-12T08:38:37.148Z,15.07
2017-11-12T08:41:04.633Z,16.10
2017-11-12T08:43:32.168Z,14.70
2017-11-12T08:45:59.650Z,19.13
2017-11-12T08:48:27.132Z,14.37
2017-11-12T08:50:54.681Z,14.40
2017-11-12T08:53:22.161Z,10.83
2017-11-12T08:55:49.650Z,15.47
2017-11-12T08:58:17.179Z,14.00
2017-11-12T09:00:44.728Z,17.00
2017-11-12T09:03:12.213Z,16.70
2017-11-12T09:05:39.737Z,16.73
2017-11-12T09:08:07.220Z,13.40
2017-11-12T09:10:34.700Z,19.73
2017-11-12T09:13:02.231Z,14.63
2017-11-12T09:15:29.745Z,18.80
2017-11-12T09:17:57.236Z,18.77
2017-11-12T09:20:24.896Z,16.37
2017-11-12T09:22:52.388Z,17.57
2017-11-12T09:25:20.045Z,9.10
2017-11-12T09:27:47.569Z,14.73
2017-11-12T09:30:15.056Z,14.10
2017-11-12T09:32:42.593Z,12.20
2017-11-12T09:35:10.134Z,16.13
2017-11-12T09:37:37.729Z,14.70
2017-11-12T09:40:05.226Z,11.03
2017-11-12T09:42:32.937Z,19.70
2017-11-12T09:45:00.443Z,33.40
2017-11-12T09:47:27.935Z,14.07
2017-11-12T09:49:55.473Z,13.00
2017-11-12T09:52:22.963Z,15.13
2017-11-12T09:54:50.465Z,11.60
2017-11-12T09:57:17.991Z,27.97
2017-11-12T09:59:45.488Z,37.97
2017-11-12T10:02:13.796Z,24.60
2017-11-12T10:04:41.340Z,20.80
2017-11-12T10:07:08.834Z,9.20
2017-11-12T10:09:36.410Z,10.97
2017-11-12T10:12:03.947Z,18.10
2017-11-12T10:14:31.511Z,9.70
2017-11-12T10:16:59.009Z,12.80
2017-11-12T10:19:26.564Z,7.93
2017-11-12T10:21:54.056Z,15.60
2017-11-12T10:24:21.563Z,14.37
2017-11-12T10:26:49.204Z,13.83
2017-11-12T10:29:16.680Z,12.93
2017-11-12T10:31:44.157Z,9.60
2017-11-12T10:34:11.676Z,13.57
2017-11-12T10:36:39.169Z,12.87
2017-11-12T10:39:06.678Z,10.20
2017-11-12T10:41:34.209Z,11.70
2017-11-12T10:44:01.709Z,11.20
2017-11-12T10:46:29.216Z,16.67
2017-11-12T10:48:56.929Z,12.73
2017-11-12T10:51:24.419Z,15.00
2017-11-12T10:53:51.914Z,10.97
2017-11-12T10:56:19.503Z,9.00
2017-11-12T10:58:47.060Z,8.10
2017-11-12T11:01:14.648Z,18.37
2017-11-12T11:03:42.244Z,11.70
2017-11-12T11:06:09.848Z,24.40
2017-11-12T11:08:37.358Z,10.90
2017-11-12T11:11:04.888Z,8.50
2017-11-12T11:13:32.431Z,13.93
2017-11-12T11:15:59.925Z,9.03
2017-11-12T11:18:27.480Z,10.67
2017-11-12T11:20:54.977Z,15.20
2017-11-12T11:23:22.464Z,12.10
2017-11-12T11:25:49.988Z,8.50
2017-11-12T11:28:17.476Z,10.30
2017-11-12T11:30:44.967Z,10.23
2017-11-12T11:33:12.487Z,9.93
2017-11-12T11:35:39.978Z,7.60
2017-11-12T11:38:07.470Z,11.47
2017-11-12T11:40:35.074Z,13.17
2017-11-12T11:43:02.652Z,12.93
2017-11-12T11:45:30.160Z,19.40
2017-11-12T11:47:57.670Z,8.40
2017-11-12T11:50:25.194Z,9.63
2017-11-12T11:52:52.778Z,14.60
2017-11-12T11:55:20.273Z,15.67
2017-11-12T11:57:47.899Z,10.13
2017-11-12T12:00:15.406Z,10.63
2017-11-12T12:02:42.901Z,12.70
2017-11-12T12:05:10.418Z,9.37
2017-11-12T12:07:38.036Z,13.30
2017-11-12T12:10:05.516Z,12.23
2017-11-12T12:12:33.025Z,12.57
2017-11-12T12:15:00.593Z,12.87
2017-11-12T12:17:28.096Z,16.37
2017-11-12T12:19:55.601Z,10.43
2017-11-12T12:22:23.129Z,9.10
2017-11-12T12:24:50.621Z,15.50
2017-11-12T12:27:18.105Z,11.80
2017-11-12T12:29:45.659Z,12.73
2017-11-12T12:32:14.123Z,8.40
2017-11-12T12:34:41.614Z,12.60
2017-11-12T12:37:09.197Z,8.13
2017-11-12T12:39:36.686Z,11.93
2017-11-12T12:42:04.173Z,10.50
2017-11-12T12:44:31.720Z,15.07
2017-11-12T12:46:59.274Z,9.87
2017-11-12T12:49:26.851Z,12.50
2017-11-12T12:51:54.391Z,8.80
2017-11-12T12:54:21.870Z,8.03
2017-11-12T12:56:49.382Z,13.67
2017-11-12T12:59:16.965Z,11.13
2017-11-12T13:01:44.525Z,13.07
2017-11-12T13:04:12.018Z,16.17
2017-11-12T13:06:39.546Z,11.67
2017-11-12T13:09:07.035Z,10.30
2017-11-12T13:11:34.526Z,12.17
2017-11-12T13:14:02.071Z,14.70
2017-11-12T13:16:29.549Z,8.67
2017-11-12T13:18:57.040Z,10.53
2017-11-12T13:21:24.566Z,12.90
2017-11-12T13:23:52.055Z,14.23
2017-11-12T13:26:19.630Z,10.50
2017-11-12T13:28:47.188Z,14.23
2017-11-12T13:31:14.739Z,19.33
2017-11-12T13:33:42.270Z,21.50
2017-11-12T13:36:09.822Z,16.33
2017-11-12T13:38:37.307Z,9.27
2017-11-12T13:41:04.876Z,11.93
2017-11-12T13:43:32.436Z,20.77
2017-11-12T13:45:59.927Z,17.23
2017-11-12T13:48:27.416Z,14.07
2017-11-12T13:50:54.937Z,9.90
2017-11-12T13:53:22.504Z,13.33
2017-11-12T13:55:50.032Z,19.13
2017-11-12T13:58:17.681Z,14.13
2017-11-12T14:00:45.180Z,17.73
2017-11-12T14:05:46.657Z,15.03
2017-11-12T14:08:14.153Z,16.13
2017-11-12T14:10:41.641Z,12.50
2017-11-12T14:13:09.175Z,10.90
2017-11-12T14:15:36.664Z,9.90
2017-11-12T14:18:04.155Z,10.50
2017-11-12T14:20:31.754Z,17.23
2017-11-12T14:22:59.237Z,16.63
2017-11-12T14:25:26.717Z,12.60
2017-11-12T14:27:54.229Z,14.80
2017-11-12T14:30:21.716Z,22.03
2017-11-12T14:32:49.200Z,9.60
2017-11-12T14:35:16.726Z,15.30
2017-11-12T14:37:44.221Z,10.60
2017-11-12T14:40:11.715Z,10.93
2017-11-12T14:42:39.273Z,17.50
2017-11-12T14:45:06.766Z,10.07
2017-11-12T14:47:34.250Z,17.53
2017-11-12T14:50:01.792Z,13.73
2017-11-12T14:52:29.273Z,11.43
2017-11-12T14:54:56.748Z,10.73
2017-11-12T14:57:24.280Z,23.77
2017-11-12T14:59:51.764Z,8.80
2017-11-12T15:02:19.255Z,12.20
2017-11-12T15:04:46.780Z,12.23
2017-11-12T15:07:14.274Z,19.10
2017-11-12T15:09:41.832Z,14.10
2017-11-12T15:12:09.373Z,14.70
2017-11-12T15:14:36.868Z,12.57
2017-11-12T15:17:04.359Z,17.40
2017-11-12T15:19:31.895Z,16.63
2017-11-12T15:21:59.393Z,14.13
2017-11-12T15:24:26.891Z,10.00
2017-11-12T15:26:54.417Z,13.40
2017-11-12T15:29:21.911Z,12.50
2017-11-12T15:31:49.454Z,16.47
2017-11-12T15:34:16.993Z,15.50
2017-11-12T15:36:44.482Z,14.50
2017-11-12T15:39:11.974Z,16.77
2017-11-12T15:41:39.489Z,16.93
2017-11-12T15:44:06.982Z,15.60
2017-11-12T15:46:34.461Z,10.00
2017-11-12T15:49:01.993Z,11.40
2017-11-12T15:51:29.548Z,17.17
2017-11-12T15:53:57.032Z,14.83
2017-11-12T15:56:24.559Z,11.83
2017-11-12T15:58:52.044Z,13.07
2017-11-12T16:01:19.536Z,14.07
2017-11-12T16:03:47.074Z,13.73
2017-11-12T16:06:14.564Z,11.20
2017-11-12T16:08:42.120Z,15.50
2017-11-12T16:11:09.689Z,13.23
2017-11-12T16:13:37.179Z,17.50
2017-11-12T16:16:04.661Z,20.80
2017-11-12T16:18:32.250Z,14.90
2017-11-12T16:20:59.742Z,18.23
2017-11-12T16:23:27.261Z,21.40
2017-11-12T16:25:54.780Z,12.57
2017-11-12T16:28:22.261Z,18.07
2017-11-12T16:30:49.764Z,26.43
2017-11-12T16:33:17.295Z,24.80
2017-11-12T16:35:44.875Z,19.60
2017-11-12T16:38:12.433Z,20.53
2017-11-12T16:40:40.109Z,21.83
2017-11-12T16:43:07.606Z,18.87
2017-11-12T16:45:35.094Z,16.27
2017-11-12T16:48:02.659Z,50.33
2017-11-12T16:50:30.172Z,20.53
2017-11-12T16:52:57.669Z,20.20
2017-11-12T16:55:25.220Z,15.53
2017-11-12T16:57:52.714Z,37.23
2017-11-12T17:00:20.209Z,28.70
2017-11-12T17:02:47.905Z,20.67
2017-11-12T17:05:15.397Z,29.73
2017-11-12T17:07:42.886Z,23.67
2017-11-12T17:10:10.418Z,28.40
2017-11-12T17:12:37.905Z,25.80
2017-11-12T17:15:05.398Z,30.60
2017-11-12T17:17:32.938Z,25.97
2017-11-12T17:20:00.507Z,23.40
2017-11-12T17:22:28.079Z,23.70
2017-11-12T17:24:55.738Z,17.87
2017-11-12T17:27:23.293Z,26.33
2017-11-12T17:29:50.785Z,20.73
2017-11-12T17:32:18.353Z,15.83
2017-11-12T17:34:45.846Z,13.70
2017-11-12T17:37:13.340Z,19.60
2017-11-12T17:39:40.865Z,14.87
2017-11-12T17:42:08.355Z,26.17
2017-11-12T17:44:35.860Z,15.43
2017-11-12T17:47:03.405Z,26.27
2017-11-12T17:49:30.901Z,16.93
2017-11-12T17:51:58.391Z,19.30
2017-11-12T17:54:25.935Z,19.70
2017-11-12T17:56:53.427Z,19.37
2017-11-12T17:59:20.922Z,21.83
2017-11-12T18:01:48.513Z,24.80
2017-11-12T18:04:16.013Z,23.33
2017-11-12T18:06:43.510Z,30.60
2017-11-12T18:09:11.031Z,24.03
2017-11-12T18:11:38.540Z,35.37
2017-11-12T18:14:06.029Z,27.03
2017-11-12T18:16:33.665Z,25.30
2017-11-12T18:19:01.165Z,25.70
2017-11-12T18:21:32.167Z,22.90
2017-11-12T18:23:59.696Z,40.00
2017-11-12T18:26:27.288Z,18.60
2017-11-12T18:28:54.784Z,19.70
2017-11-12T18:31:22.313Z,27.27
2017-11-12T18:33:49.817Z,23.73
2017-11-12T18:36:18.260Z,27.07
2017-11-12T18:38:46.136Z,32.97
2017-11-12T18:41:14.408Z,33.77
2017-11-12T18:43:43.062Z,32.33
2017-11-12T18:46:11.844Z,36.10
2017-11-12T18:48:41.149Z,25.13
2017-11-12T18:51:08.666Z,23.93
2017-11-12T18:53:36.195Z,20.80
2017-11-12T18:56:04.018Z,23.53
2017-11-12T18:58:43.369Z,22.37
2017-11-12T19:01:11.374Z,20.77
2017-11-12T19:03:48.635Z,19.97
2017-11-12T19:06:21.949Z,31.67
2017-11-12T19:08:53.096Z,20.50
2017-11-12T19:11:20.670Z,24.37
2017-11-12T19:13:48.311Z,21.73
2017-11-12T19:16:16.130Z,23.00
2017-11-12T19:18:45.650Z,35.93
2017-11-12T19:21:13.979Z,61.13
2017-11-12T19:23:42.649Z,31.20
2017-11-12T19:26:13.892Z,21.23
2017-11-12T19:28:47.222Z,30.80
2017-11-12T19:31:15.053Z,32.00
2017-11-12T19:33:42.915Z,25.00
2017-11-12T19:36:10.791Z,24.57
2017-11-12T19:38:38.648Z,24.70
2017-11-12T19:41:06.520Z,36.33
2017-11-12T19:43:34.592Z,31.50
2017-11-12T19:46:02.457Z,32.53
2017-11-12T19:48:30.324Z,28.20
2017-11-12T19:50:58.189Z,42.23
2017-11-12T19:53:26.058Z,27.70
2017-11-12T19:55:53.912Z,28.67
2017-11-12T19:58:21.790Z,24.40
2017-11-12T20:00:49.655Z,25.43
2017-11-12T20:03:17.523Z,23.93
2017-11-12T20:05:45.390Z,18.37
2017-11-12T20:08:13.247Z,19.13
2017-11-12T20:10:41.122Z,17.00
2017-11-12T20:13:09.094Z,18.10
2017-11-12T20:15:36.855Z,23.70
2017-11-12T20:18:04.708Z,21.63
2017-11-12T20:20:32.587Z,20.67
2017-11-12T20:23:00.559Z,23.73
2017-11-12T20:25:28.409Z,24.03
2017-11-12T20:27:55.992Z,24.97
2017-11-12T20:30:23.543Z,26.00
2017-11-12T20:32:51.100Z,33.40
2017-11-12T20:35:18.644Z,23.97
2017-11-12T20:37:46.144Z,33.07
2017-11-12T20:40:13.647Z,27.00
2017-11-12T20:42:41.186Z,17.97
2017-11-12T20:45:08.680Z,26.77
2017-11-12T20:47:36.164Z,24.00
2017-11-12T20:50:03.716Z,25.23
2017-11-12T20:52:32.112Z,36.83
2017-11-12T20:54:59.603Z,23.17
2017-11-12T20:57:27.157Z,28.10
2017-11-12T20:59:54.666Z,38.63
2017-11-12T21:02:22.161Z,30.27
2017-11-12T21:04:55.737Z,32.83
2017-11-12T21:07:23.256Z,23.27
2017-11-12T21:09:50.763Z,33.40
2017-11-12T21:12:18.287Z,28.77
2017-11-12T21:14:45.778Z,29.47
2017-11-12T21:17:13.340Z,27.90
2017-11-12T21:19:43.260Z,28.30
2017-11-12T21:22:16.296Z,24.67
2017-11-12T21:24:43.841Z,31.57
2017-11-12T21:30:23.014Z,29.00
2017-11-12T21:32:50.502Z,28.80
2017-11-12T21:35:33.717Z,27.50
2017-11-12T21:38:01.205Z,33.63
2017-11-12T21:40:29.585Z,25.57
2017-11-12T21:42:57.124Z,26.83
2017-11-12T21:45:24.613Z,41.30
2017-11-12T21:47:52.105Z,29.43
2017-11-12T21:50:19.650Z,29.70
2017-11-12T21:52:47.240Z,34.00
2017-11-12T21:55:14.753Z,34.27
2017-11-12T21:57:42.304Z,25.40
2017-11-12T22:00:09.810Z,27.07
2017-11-12T22:02:37.305Z,38.13
2017-11-12T22:05:04.945Z,33.43
2017-11-12T22:07:32.430Z,26.10
2017-11-12T22:09:59.919Z,35.87
2017-11-12T22:12:27.486Z,33.53
2017-11-12T22:14:55.052Z,31.87
2017-11-12T22:17:22.613Z,29.50
2017-11-12T22:19:50.215Z,26.37
2017-11-12T22:22:17.809Z,26.67
2017-11-12T22:24:45.300Z,24.83
2017-11-12T22:27:12.837Z,29.47
2017-11-12T22:29:40.333Z,26.70
2017-11-12T22:32:07.869Z,29.83
2017-11-12T22:34:35.396Z,25.53
2017-11-12T22:37:02.988Z,23.17
2017-11-12T22:39:30.476Z,23.97
2017-11-12T22:41:58.099Z,23.83
2017-11-12T22:44:25.587Z,34.00
2017-11-12T22:46:53.074Z,25.67
2017-11-12T22:49:20.608Z,27.30
2017-11-12T22:51:48.139Z,27.90
2017-11-12T22:54:15.625Z,39.33
2017-11-12T22:56:43.161Z,41.73
2017-11-12T22:59:10.729Z,33.77
2017-11-12T23:01:38.222Z,28.03
2017-11-12T23:04:05.777Z,36.03
2017-11-12T23:06:33.293Z,28.87
2017-11-12T23:09:00.785Z,38.73
2017-11-12T23:11:28.676Z,40.10
2017-11-12T23:13:56.170Z,34.17
2017-11-12T23:16:23.665Z,36.53
2017-11-12T23:18:51.213Z,35.73
2017-11-12T23:21:18.711Z,35.50
2017-11-12T23:23:46.201Z,30.20
2017-11-12T23:26:13.776Z,45.37
2017-11-12T23:28:41.274Z,53.67
2017-11-12T23:31:08.776Z,36.63
2017-11-12T23:33:36.299Z,32.93
2017-11-12T23:36:03.790Z,39.00
2017-11-12T23:38:31.272Z,38.10
2017-11-12T23:40:58.804Z,35.90
2017-11-12T23:43:26.331Z,32.50
2017-11-12T23:45:53.817Z,37.63
2017-11-12T23:48:21.338Z,48.50
2017-11-12T23:50:48.830Z,27.93
2017-11-12T23:53:16.338Z,35.10
2017-11-12T23:55:43.878Z,30.90
2017-11-12T23:58:11.366Z,33.40
